Time;durP1;ratioP1;P1;durP2;ratioP2;P2;SDS_P1;SDS_P2;PMS_P1;PMS_P2;Temp;Humidity;BMP_temperature;BMP_pressure;BME280_temperature;BME280_humidity;BME280_pressure;Samples;Min_cycle;Max_cycle;Signal;HPM_P1;HPM_P2
2022/01/29 00:01:38;;;;;;;;;21.00;16.25;;;;;8.48;68.46;102924.19;5075149;28;45544;-61
2022/01/29 00:04:04;;;;;;;;;20.75;16.50;;;;;8.50;67.96;102906.47;5074776;28;45434;-61
2022/01/29 00:06:29;;;;;;;;;16.25;13.75;;;;;8.44;68.33;102909.16;5076082;27;45455;-61
2022/01/29 00:08:57;;;;;;;;;13.50;13.50;;;;;8.45;68.66;102908.28;5076033;27;45633;-62
2022/01/29 00:11:27;;;;;;;;;19.00;15.25;;;;;8.49;68.33;102918.84;5076278;27;45497;-61
2022/01/29 00:13:53;;;;;;;;;17.75;15.25;;;;;8.47;68.21;102903.84;5075794;27;46049;-60
2022/01/29 00:16:18;;;;;;;;;19.50;14.50;;;;;8.47;68.67;102907.38;5071625;28;45479;-60
2022/01/29 00:18:44;;;;;;;;;20.25;16.50;;;;;8.48;68.08;102905.59;5076011;27;45357;-61
2022/01/29 00:21:09;;;;;;;;;21.25;16.50;;;;;8.49;68.42;102902.94;5076003;27;45270;-61
2022/01/29 00:23:35;;;;;;;;;21.00;15.50;;;;;8.37;68.22;102880.97;5075496;27;45357;-61
2022/01/29 00:26:00;;;;;;;;;19.00;17.25;;;;;8.45;68.33;102902.97;5075531;27;45424;-60
2022/01/29 00:28:27;;;;;;;;;14.00;11.25;;;;;8.42;68.28;102889.75;5074696;27;45282;-60
2022/01/29 00:30:53;;;;;;;;;14.50;14.50;;;;;8.38;68.23;102872.13;5074557;27;45531;-61
2022/01/29 00:33:18;;;;;;;;;17.25;13.50;;;;;8.40;69.13;102872.97;5061801;27;46506;-62
2022/01/29 00:35:43;;;;;;;;;16.75;14.75;;;;;8.40;68.56;102876.50;5054029;28;45318;-61
2022/01/29 00:38:09;;;;;;;;;16.00;14.00;;;;;8.36;69.25;102873.91;5054260;28;45549;-61
2022/01/29 00:40:36;;;;;;;;;23.00;15.00;;;;;8.34;69.16;102876.59;5054263;28;45246;-61
2022/01/29 00:43:03;;;;;;;;;14.75;14.00;;;;;8.34;69.33;102873.03;5055073;28;45902;-60
2022/01/29 00:45:29;;;;;;;;;18.75;12.00;;;;;8.35;69.00;102875.69;5054929;28;45466;-60
2022/01/29 00:47:54;;;;;;;;;18.75;15.25;;;;;8.36;69.17;102872.13;5055187;28;45443;-62
2022/01/29 00:50:20;;;;;;;;;15.75;14.25;;;;;8.31;69.35;102857.13;5055744;28;45294;-60
2022/01/29 00:52:47;;;;;;;;;15.00;13.00;;;;;8.34;69.34;102870.38;5055481;28;45356;-60
2022/01/29 00:55:12;;;;;;;;;21.00;15.25;;;;;8.31;69.13;102854.47;5055781;28;45454;-60
2022/01/29 00:57:39;;;;;;;;;17.75;13.50;;;;;8.30;69.70;102843.00;5063824;28;45263;-60
2022/01/29 01:00:10;;;;;;;;;17.00;14.75;;;;;8.35;69.28;102861.56;5068579;27;45310;-61
2022/01/29 01:02:36;;;;;;;;;13.00;11.25;;;;;8.36;69.50;102847.41;5056638;28;47133;-60
2022/01/29 01:05:03;;;;;;;;;12.25;11.50;;;;;8.38;69.23;102848.25;5058596;28;45531;-61
2022/01/29 01:07:28;;;;;;;;;13.75;13.25;;;;;8.33;69.69;102847.38;5058404;28;45358;-62
2022/01/29 01:09:54;;;;;;;;;15.75;14.00;;;;;8.30;69.95;102845.66;5058987;28;45279;-61
2022/01/29 01:12:19;;;;;;;;;19.00;17.25;;;;;8.29;70.29;102836.81;5058702;28;46046;-63
2022/01/29 01:14:45;;;;;;;;;21.75;17.00;;;;;8.30;70.46;102848.28;5058687;28;45368;-61
2022/01/29 01:17:10;;;;;;;;;18.50;14.25;;;;;8.20;71.45;102846.63;5058391;28;45398;-60
2022/01/29 01:19:36;;;;;;;;;14.25;13.75;;;;;8.15;71.59;102829.91;5058570;28;45272;-60
2022/01/29 01:22:02;;;;;;;;;10.75;9.00;;;;;8.18;71.52;102832.50;5058176;28;45815;-61
2022/01/29 01:24:27;;;;;;;;;14.75;14.75;;;;;8.26;72.02;102836.84;5058051;28;45354;-59
2022/01/29 01:26:53;;;;;;;;;12.00;12.00;;;;;8.24;72.08;102843.94;5058624;28;45325;-60
2022/01/29 01:29:19;;;;;;;;;13.25;13.25;;;;;8.14;72.21;102825.50;5073955;28;45471;-61
2022/01/29 01:31:45;;;;;;;;;15.25;13.25;;;;;8.21;73.21;102841.34;5058915;28;45447;-60
2022/01/29 01:34:18;;;;;;;;;14.75;14.75;;;;;8.09;73.24;102828.22;5077231;28;45377;-60
2022/01/29 01:36:52;;;;;;;;;14.75;13.75;;;;;8.11;73.32;102830.84;5078204;27;45231;-60
2022/01/29 01:39:22;;;;;;;;;19.50;12.00;;;;;8.16;73.44;102845.78;5078582;28;45318;-59
2022/01/29 01:41:59;;;;;;;;;21.50;14.50;;;;;8.14;74.43;102844.94;5078328;28;45559;-61
2022/01/29 01:44:24;;;;;;;;;23.25;16.50;;;;;8.12;74.20;102849.38;5078485;28;45199;-61
2022/01/29 01:46:50;;;;;;;;;15.25;15.25;;;;;8.12;74.29;102837.91;5078119;28;45287;-60
2022/01/29 01:49:19;;;;;;;;;19.25;17.50;;;;;8.10;74.22;102840.56;5078223;28;45702;-62
2022/01/29 01:51:45;;;;;;;;;28.50;17.75;;;;;8.08;75.02;102831.75;5076707;27;45472;-60
2022/01/29 01:54:10;;;;;;;;;17.00;17.00;;;;;8.08;75.92;102829.09;5077413;28;45513;-60
2022/01/29 01:56:36;;;;;;;;;17.50;17.50;;;;;8.04;76.21;102830.00;5076839;28;45456;-59
2022/01/29 01:59:01;;;;;;;;;16.00;14.75;;;;;7.93;76.10;102810.69;5078212;28;45579;-61
2022/01/29 02:01:27;;;;;;;;;20.75;15.50;;;;;7.62;76.03;102771.25;5078044;27;46002;-61
2022/01/29 02:03:52;;;;;;;;;16.50;14.00;;;;;8.03;75.90;102833.56;5060190;28;45343;-61
2022/01/29 02:06:19;;;;;;;;;21.75;21.00;;;;;7.93;75.47;102811.56;5077823;28;45432;-60
2022/01/29 02:08:44;;;;;;;;;22.00;16.75;;;;;8.04;76.04;102822.06;5076860;28;45535;-60
2022/01/29 02:11:10;;;;;;;;;19.25;14.50;;;;;8.02;76.01;102818.53;5077791;27;45231;-60
2022/01/29 02:13:36;;;;;;;;;24.75;16.75;;;;;8.00;76.29;102815.03;5077063;27;45272;-61
2022/01/29 02:16:03;;;;;;;;;21.00;15.75;;;;;7.99;75.97;102805.34;5074586;27;45533;-60
2022/01/29 02:18:29;;;;;;;;;12.00;11.50;;;;;7.96;76.13;102800.06;5078004;27;45408;-59
2022/01/29 02:20:54;;;;;;;;;20.75;14.75;;;;;7.99;76.06;102805.34;5076493;28;47220;-59
2022/01/29 02:23:20;;;;;;;;;21.75;15.75;;;;;7.97;75.57;102801.84;5076323;27;45339;-60
2022/01/29 02:25:50;;;;;;;;;17.50;16.00;;;;;7.99;75.17;102795.63;5077731;27;45417;-60
2022/01/29 02:28:18;;;;;;;;;22.00;18.00;;;;;7.94;75.66;102794.78;5077663;27;45316;-61
2022/01/29 02:30:46;;;;;;;;;20.00;17.25;;;;;7.96;76.14;102795.66;5077436;27;45658;-60
2022/01/29 02:33:14;;;;;;;;;17.75;16.00;;;;;7.98;75.88;102793.00;5085603;27;45559;-60
2022/01/29 02:35:48;;;;;;;;;17.75;14.75;;;;;8.00;75.62;102783.25;5077565;27;45167;-61
2022/01/29 02:38:16;;;;;;;;;22.50;17.50;;;;;8.00;75.74;102777.94;5076174;27;45587;-61
2022/01/29 02:43:15;;;;;;;;;14.25;14.25;;;;;8.01;75.65;102763.81;5077418;27;45305;-60
2022/01/29 02:45:42;;;;;;;;;16.00;13.00;;;;;7.98;76.38;102766.50;5077224;27;45375;-60
2022/01/29 02:48:08;;;;;;;;;11.75;11.75;;;;;7.97;75.67;102759.44;5077304;27;45249;-58
2022/01/29 02:50:34;;;;;;;;;14.00;14.00;;;;;7.98;75.61;102755.88;5075710;28;46333;-60
2022/01/29 02:53:00;;;;;;;;;25.25;15.25;;;;;8.00;76.52;102751.44;5076993;27;45827;-59
2022/01/29 02:55:28;;;;;;;;;21.00;15.25;;;;;7.97;75.60;102739.13;5077827;27;45325;-60
2022/01/29 02:57:54;;;;;;;;;19.00;13.25;;;;;7.94;76.14;102738.25;5077071;27;45637;-60
2022/01/29 03:00:19;;;;;;;;;17.00;15.50;;;;;7.90;76.15;102739.19;5075856;27;45554;-58
2022/01/29 03:02:45;;;;;;;;;12.75;11.25;;;;;7.91;76.73;102738.28;5056258;28;45305;-60
2022/01/29 03:05:10;;;;;;;;;18.00;12.75;;;;;7.88;76.70;102735.69;5055430;28;45235;-60
2022/01/29 03:07:37;;;;;;;;;13.25;11.25;;;;;7.94;76.92;102735.59;5056790;28;45222;-60
2022/01/29 03:10:03;;;;;;;;;20.75;14.25;;;;;7.88;77.21;102720.66;5056341;28;45335;-60
2022/01/29 03:12:28;;;;;;;;;16.50;13.50;;;;;7.97;76.34;102722.34;5056839;28;45385;-60
2022/01/29 03:14:54;;;;;;;;;14.50;12.75;;;;;7.96;76.85;102721.47;5056498;28;45275;-65
2022/01/29 03:17:19;;;;;;;;;14.50;9.75;;;;;7.98;76.43;102724.09;5056893;28;45668;-60
2022/01/29 03:19:45;;;;;;;;;11.50;11.50;;;;;7.92;76.43;102702.94;5056433;28;45705;-59
2022/01/29 03:22:10;;;;;;;;;14.50;12.50;;;;;7.96;76.38;102724.13;5055220;28;45703;-63
2022/01/29 03:24:36;;;;;;;;;13.25;12.00;;;;;7.86;76.79;102709.22;5055452;28;45517;-60
2022/01/29 03:27:02;;;;;;;;;15.25;13.50;;;;;7.97;76.63;102725.00;5056818;28;45511;-59
2022/01/29 03:29:28;;;;;;;;;11.50;11.50;;;;;7.98;76.54;102716.16;5056290;28;45416;-60
2022/01/29 03:31:53;;;;;;;;;10.00;10.00;;;;;7.99;76.93;102716.13;5058264;28;45365;-59
2022/01/29 03:34:19;;;;;;;;;16.25;11.00;;;;;8.02;76.34;102720.50;5075353;27;45323;-60
2022/01/29 03:36:45;;;;;;;;;10.50;9.25;;;;;8.05;76.17;102728.41;5076940;28;45297;-61
2022/01/29 03:39:10;;;;;;;;;9.00;9.00;;;;;8.03;76.67;102721.38;5075039;28;45419;-59
2022/01/29 03:41:37;;;;;;;;;11.25;9.00;;;;;8.08;76.57;102731.06;5076346;28;45322;-60
2022/01/29 03:44:05;;;;;;;;;13.50;13.50;;;;;8.14;76.14;102730.09;5076537;28;45183;-60
2022/01/29 03:46:32;;;;;;;;;18.00;14.25;;;;;8.12;76.63;102731.88;5076729;28;45320;-59
2022/01/29 03:48:58;;;;;;;;;12.25;12.00;;;;;8.01;76.33;102701.97;5076457;28;45368;-62
2022/01/29 03:51:23;;;;;;;;;15.75;13.50;;;;;8.12;76.51;102718.63;5076279;28;45408;-61
2022/01/29 03:53:49;;;;;;;;;18.25;10.50;;;;;8.12;76.95;102711.56;5076123;28;45351;-61
2022/01/29 03:56:15;;;;;;;;;12.75;11.00;;;;;8.14;76.38;102722.13;5076583;28;45607;-60
2022/01/29 03:58:40;;;;;;;;;16.50;15.50;;;;;8.11;76.35;102720.41;5074597;27;46128;-61
2022/01/29 04:01:05;;;;;;;;;12.50;10.25;;;;;8.09;76.54;102713.38;5075440;27;45332;-60
2022/01/29 04:03:32;;;;;;;;;12.75;8.25;;;;;8.08;76.57;102717.81;5075256;28;45374;-60
2022/01/29 04:05:58;;;;;;;;;17.00;11.50;;;;;8.03;76.97;102706.34;5077073;27;45534;-61
2022/01/29 04:08:25;;;;;;;;;13.75;11.25;;;;;8.03;77.32;102705.47;5075845;27;45528;-60
2022/01/29 04:10:51;;;;;;;;;13.00;11.25;;;;;8.15;77.17;102726.53;5076154;27;45354;-61
2022/01/29 04:13:21;;;;;;;;;13.00;12.00;;;;;8.14;77.06;102720.38;5069236;28;45658;-60
2022/01/29 04:15:46;;;;;;;;;10.00;6.75;;;;;8.12;77.69;102716.84;5062469;27;45227;-61
2022/01/29 04:18:12;;;;;;;;;13.75;9.50;;;;;8.05;77.64;102704.56;5071390;28;45920;-61
2022/01/29 04:20:37;;;;;;;;;15.75;13.50;;;;;8.11;77.57;102712.47;5075463;27;45282;-59
2022/01/29 04:23:06;;;;;;;;;15.00;13.25;;;;;8.12;77.44;102711.56;5058524;28;45404;-59
2022/01/29 04:25:32;;;;;;;;;11.25;11.25;;;;;8.12;77.68;102710.69;5056557;28;45342;-60
2022/01/29 04:27:57;;;;;;;;;11.75;10.50;;;;;8.18;77.39;102710.59;5054077;28;46420;-60
2022/01/29 04:30:31;;;;;;;;;13.75;10.50;;;;;8.15;77.50;102714.16;5066105;28;45337;-60
2022/01/29 04:33:02;;;;;;;;;12.50;7.50;;;;;8.15;77.72;102718.59;5076054;27;45438;-61
2022/01/29 04:35:28;;;;;;;;;14.00;12.00;;;;;8.16;77.51;102728.28;5075100;28;45445;-60
2022/01/29 04:37:54;;;;;;;;;14.00;14.00;;;;;8.16;77.14;102720.34;5077875;28;47604;-61
2022/01/29 04:40:21;;;;;;;;;13.50;11.00;;;;;8.18;77.05;102716.78;5079539;27;45550;-59
2022/01/29 04:42:47;;;;;;;;;14.50;12.50;;;;;8.15;77.82;102695.59;5079224;27;45326;-60
2022/01/29 04:45:13;;;;;;;;;13.00;13.00;;;;;8.20;77.77;102707.06;5079313;27;45262;-60
2022/01/29 04:47:39;;;;;;;;;14.00;12.00;;;;;8.18;78.07;102700.88;5066517;27;45347;-60
2022/01/29 04:50:05;;;;;;;;;13.50;9.25;;;;;8.23;77.58;102698.19;5059142;28;45656;-61
2022/01/29 04:52:31;;;;;;;;;14.50;13.50;;;;;8.26;78.68;102704.31;5059374;28;45368;-59
2022/01/29 04:54:57;;;;;;;;;13.50;9.50;;;;;8.30;77.53;102699.84;5059040;28;45546;-60
2022/01/29 04:57:22;;;;;;;;;12.75;12.75;;;;;8.25;78.29;102691.06;5063758;28;46177;-60
2022/01/29 04:59:48;;;;;;;;;10.50;9.75;;;;;8.31;77.93;102703.34;5079123;27;45413;-59
2022/01/29 05:02:13;;;;;;;;;9.25;9.25;;;;;8.29;78.33;102704.25;5073109;28;45557;-59
2022/01/29 05:04:38;;;;;;;;;10.00;9.25;;;;;8.33;77.98;102704.22;5079452;27;45287;-60
2022/01/29 05:07:04;;;;;;;;;14.75;11.25;;;;;8.33;78.52;102693.59;5079181;27;45574;-61
2022/01/29 05:09:30;;;;;;;;;19.50;13.75;;;;;8.31;78.90;102706.88;5078746;27;45411;-59
2022/01/29 05:11:56;;;;;;;;;13.00;11.25;;;;;8.35;78.39;102707.78;5079118;27;45286;-60
2022/01/29 05:14:33;;;;;;;;;13.75;13.75;;;;;8.39;77.87;102709.50;5079231;27;45585;-60
2022/01/29 05:27:52;;;;;;;;;13.75;13.00;;;;;8.47;77.56;102689.06;5078848;28;45400;-59
2022/01/29 05:30:17;;;;;;;;;11.00;11.00;;;;;8.49;77.49;102700.53;5077396;28;45596;-61
2022/01/29 05:32:43;;;;;;;;;13.75;13.75;;;;;8.50;78.25;102702.28;5078403;28;45322;-60
2022/01/29 05:35:09;;;;;;;;;11.00;9.50;;;;;8.51;78.18;102699.59;5078857;28;45277;-60
2022/01/29 05:37:34;;;;;;;;;11.00;9.00;;;;;8.49;78.11;102700.53;5077127;28;46694;-59
2022/01/29 05:39:59;;;;;;;;;16.00;11.75;;;;;8.49;78.19;102688.13;5076918;28;45400;-60
2022/01/29 05:42:25;;;;;;;;;15.50;11.75;;;;;8.48;78.08;102677.56;5078371;28;45298;-60
2022/01/29 05:44:51;;;;;;;;;15.25;12.00;;;;;8.54;77.83;102693.38;5078186;28;45648;-60
2022/01/29 05:47:16;;;;;;;;;12.00;12.00;;;;;8.58;78.18;102687.09;5077428;28;45408;-60
2022/01/29 05:49:41;;;;;;;;;12.00;10.00;;;;;8.60;78.00;102693.28;5077848;28;45473;-60
2022/01/29 05:52:07;;;;;;;;;15.00;11.00;;;;;8.57;78.34;102682.69;5078171;28;45410;-59
2022/01/29 05:54:32;;;;;;;;;11.25;11.25;;;;;8.58;77.94;102687.09;5078039;28;45422;-60
2022/01/29 05:56:58;;;;;;;;;14.00;11.50;;;;;8.58;77.31;102684.44;5076434;28;46292;-61
2022/01/29 05:59:23;;;;;;;;;10.25;9.00;;;;;8.61;77.64;102689.75;5072105;28;45381;-60
2022/01/29 06:01:49;;;;;;;;;12.00;12.00;;;;;8.58;77.98;102679.16;5056191;28;45346;-60
2022/01/29 06:04:14;;;;;;;;;17.25;11.00;;;;;8.60;77.47;102664.13;5058034;28;45310;-60
2022/01/29 06:06:40;;;;;;;;;11.75;11.75;;;;;8.65;77.59;102670.22;5057742;28;45192;-61
2022/01/29 06:09:05;;;;;;;;;10.50;9.75;;;;;8.68;77.96;102680.78;5058719;28;45254;-61
2022/01/29 06:11:32;;;;;;;;;14.75;10.75;;;;;8.55;78.52;102663.28;5077499;27;45491;-60
2022/01/29 06:13:57;;;;;;;;;11.00;11.00;;;;;8.70;77.74;102686.94;5077856;27;45653;-61
2022/01/29 06:16:23;;;;;;;;;10.50;10.00;;;;;8.70;77.78;102684.28;5077223;27;46362;-59
2022/01/29 06:18:48;;;;;;;;;12.25;12.25;;;;;8.61;78.19;102671.16;5076431;28;45238;-60
2022/01/29 06:21:15;;;;;;;;;14.50;12.50;;;;;8.66;78.15;102677.28;5076243;27;45325;-59
2022/01/29 06:23:40;;;;;;;;;12.50;11.00;;;;;8.73;77.59;102683.38;5074297;27;45493;-60
2022/01/29 06:26:11;;;;;;;;;10.00;10.00;;;;;8.74;77.85;102687.78;5075833;28;45505;-60
2022/01/29 06:28:38;;;;;;;;;16.75;11.75;;;;;8.77;78.79;102683.31;5077021;27;45476;-60
2022/01/29 06:31:05;;;;;;;;;13.50;10.50;;;;;8.77;78.15;102678.00;5073001;27;45187;-60
2022/01/29 06:33:31;;;;;;;;;9.25;8.75;;;;;8.81;78.33;102692.97;5061614;28;45397;-61
2022/01/29 06:35:57;;;;;;;;;13.00;9.50;;;;;8.76;78.28;102673.59;5076452;27;45433;-60
2022/01/29 06:38:23;;;;;;;;;10.00;9.00;;;;;8.81;77.53;102681.47;5063873;28;45441;-60
2022/01/29 06:40:49;;;;;;;;;11.00;11.00;;;;;8.83;78.01;102679.66;5057417;28;45445;-59
2022/01/29 06:43:14;;;;;;;;;10.00;8.50;;;;;8.87;77.63;102684.03;5057643;28;45426;-61
2022/01/29 06:45:44;;;;;;;;;13.00;9.75;;;;;8.89;77.68;102679.59;5061255;28;45840;-59
2022/01/29 06:48:11;;;;;;;;;11.00;9.00;;;;;8.92;76.92;102683.97;5077794;27;45273;-60
2022/01/29 06:50:37;;;;;;;;;10.50;7.00;;;;;8.85;77.27;102665.50;5077625;27;45427;-60
2022/01/29 06:53:03;;;;;;;;;10.00;8.50;;;;;8.94;77.56;102668.88;5077489;27;45403;-60
2022/01/29 06:55:28;;;;;;;;;9.00;9.00;;;;;8.97;78.02;102676.78;5077107;27;45368;-60
2022/01/29 06:57:54;;;;;;;;;6.00;6.00;;;;;8.93;77.60;102664.47;5077375;27;45334;-60
2022/01/29 07:00:19;;;;;;;;;8.50;8.50;;;;;8.99;77.02;102669.72;5069443;27;45844;-62
2022/01/29 07:02:45;;;;;;;;;9.00;9.00;;;;;9.00;77.54;102676.75;5077535;27;45386;-61
2022/01/29 07:05:12;;;;;;;;;6.75;6.75;;;;;9.00;77.53;102674.09;5059142;28;46503;-60
2022/01/29 07:07:38;;;;;;;;;3.50;3.50;;;;;9.01;77.50;102681.16;5076030;28;45329;-60
2022/01/29 07:10:05;;;;;;;;;8.25;8.25;;;;;9.04;77.73;102686.41;5092343;27;45352;-63
2022/01/29 07:12:31;;;;;;;;;9.00;6.00;;;;;9.04;77.44;102683.75;5109614;27;45505;-62
2022/01/29 07:14:56;;;;;;;;;12.50;9.00;;;;;9.04;77.96;102666.06;5076556;27;45987;-61
2022/01/29 07:17:24;;;;;;;;;14.50;14.25;;;;;9.10;76.95;102675.69;5093192;27;45455;-61
2022/01/29 07:19:52;;;;;;;;;10.00;8.00;;;;;9.09;77.76;102672.16;5077636;27;45337;-60
2022/01/29 07:22:18;;;;;;;;;9.00;9.00;;;;;9.10;77.10;102662.41;5075969;28;45397;-61
2022/01/29 07:24:44;;;;;;;;;9.25;6.75;;;;;9.12;78.07;102660.63;5075547;28;45330;-61
2022/01/29 07:27:13;;;;;;;;;6.75;6.75;;;;;9.14;77.93;102658.81;5077208;28;45509;-60
2022/01/29 07:29:39;;;;;;;;;8.00;5.50;;;;;9.08;77.67;102654.47;5077719;27;45295;-62
2022/01/29 07:32:05;;;;;;;;;5.50;4.00;;;;;9.18;77.18;102664.94;5077524;28;45424;-61
2022/01/29 07:34:31;;;;;;;;;6.75;5.00;;;;;9.05;76.50;102643.03;5076861;28;45489;-61
2022/01/29 07:36:57;;;;;;;;;5.75;5.75;;;;;9.13;77.47;102657.06;5075486;28;45244;-62
2022/01/29 07:39:24;;;;;;;;;4.75;3.50;;;;;9.22;77.28;102661.31;5073842;28;45302;-61
2022/01/29 07:41:50;;;;;;;;;6.00;3.00;;;;;9.19;77.43;102661.38;5064178;27;45187;-61
2022/01/29 07:44:16;;;;;;;;;5.00;5.00;;;;;9.21;77.45;102667.53;5066906;28;45468;-60
2022/01/29 07:46:41;;;;;;;;;6.25;5.75;;;;;9.22;77.52;102659.53;5056414;28;45482;-61
2022/01/29 07:49:07;;;;;;;;;5.00;5.00;;;;;9.32;76.57;102669.09;5073989;28;45267;-60
2022/01/29 07:51:33;;;;;;;;;2.75;2.75;;;;;9.31;77.42;102671.78;5074572;27;45726;-62
2022/01/29 07:53:58;;;;;;;;;4.50;4.50;;;;;9.34;77.47;102672.59;5074809;28;45445;-61
2022/01/29 07:56:24;;;;;;;;;5.00;3.00;;;;;9.37;76.58;102661.94;5076392;27;45879;-60
2022/01/29 07:58:50;;;;;;;;;2.50;2.50;;;;;9.40;76.55;102661.91;5077303;27;45425;-63
2022/01/29 08:01:16;;;;;;;;;6.25;2.25;;;;;9.44;77.40;102663.59;5067827;27;45552;-61
2022/01/29 08:03:46;;;;;;;;;4.00;4.00;;;;;9.43;76.61;102661.84;5056403;28;46009;-61
2022/01/29 08:06:12;;;;;;;;;5.00;5.00;;;;;9.48;76.80;102652.91;5056433;28;45450;-60
2022/01/29 08:08:37;;;;;;;;;2.50;2.50;;;;;9.60;78.14;102665.94;5069204;28;45333;-62
2022/01/29 08:11:02;;;;;;;;;6.00;5.00;;;;;9.77;77.53;102669.19;5075102;28;45298;-58
2022/01/29 08:13:28;;;;;;;;;8.25;3.00;;;;;9.68;76.57;102650.75;5076138;27;46032;-59
2022/01/29 08:15:53;;;;;;;;;6.00;3.00;;;;;9.70;76.33;102659.56;5076107;27;45385;-62
2022/01/29 08:18:18;;;;;;;;;2.33;2.33;;;;;9.73;76.55;102644.41;5108902;27;45495;-64
2022/01/29 08:20:44;;;;;;;;;2.00;2.00;;;;;9.82;77.30;102651.34;5072973;27;45543;-59
2022/01/29 08:23:10;;;;;;;;;3.00;2.00;;;;;9.78;76.53;102641.69;5055387;28;45470;-60
2022/01/29 08:25:37;;;;;;;;;1.33;1.33;;;;;9.79;76.53;102653.19;5055706;28;45676;-60
2022/01/29 08:28:04;;;;;;;;;2.25;2.25;;;;;9.77;77.24;102644.38;5058155;28;45299;-61
2022/01/29 08:30:29;;;;;;;;;2.00;2.00;;;;;9.80;77.14;102658.47;5055553;28;45314;-60
2022/01/29 08:32:55;;;;;;;;;5.00;5.00;;;;;9.78;77.30;102647.00;5055527;28;45452;-60
2022/01/29 08:35:20;;;;;;;;;4.75;2.00;;;;;9.79;76.81;102654.06;5054612;28;45434;-59
2022/01/29 08:37:46;;;;;;;;;3.00;3.00;;;;;9.80;77.39;102649.63;5055844;28;45373;-59
2022/01/29 08:40:12;;;;;;;;;3.00;3.00;;;;;9.79;77.43;102656.72;5055919;28;45365;-59
2022/01/29 08:42:38;;;;;;;;;3.00;3.00;;;;;9.75;77.57;102660.34;5053884;28;45355;-62
2022/01/29 08:45:06;;;;;;;;;2.75;2.75;;;;;9.80;77.62;102657.59;5066576;28;45550;-59
2022/01/29 08:47:31;;;;;;;;;3.00;3.00;;;;;9.83;77.58;102661.06;5076063;27;45183;-60
2022/01/29 08:49:57;;;;;;;;;1.75;1.75;;;;;9.79;77.48;102651.41;5074215;28;45459;-64
2022/01/29 08:52:22;;;;;;;;;5.25;2.00;;;;;9.77;76.99;102647.91;5067412;28;45504;-60
2022/01/29 08:54:48;;;;;;;;;5.50;3.50;;;;;9.79;77.03;102654.06;5054205;28;45402;-61
2022/01/29 08:57:13;;;;;;;;;3.00;3.00;;;;;9.78;76.95;102657.63;5055802;28;45398;-61
2022/01/29 08:59:39;;;;;;;;;2.50;2.50;;;;;9.79;76.74;102658.50;5075848;27;45279;-61
2022/01/29 09:02:04;;;;;;;;;3.50;3.50;;;;;9.75;76.71;102637.28;5074976;27;45685;-63
2022/01/29 09:04:30;;;;;;;;;0.00;0.00;;;;;9.79;77.48;102654.06;5074925;27;45414;-61
2022/01/29 09:06:56;;;;;;;;;5.00;2.67;;;;;9.81;76.94;102652.25;5075087;27;45406;-59
2022/01/29 09:09:25;;;;;;;;;3.00;3.00;;;;;9.85;76.77;102648.63;5075611;28;45309;-59
2022/01/29 09:11:51;;;;;;;;;4.33;2.00;;;;;9.90;76.59;102657.41;5091064;27;47672;-60
2022/01/29 09:14:18;;;;;;;;;2.00;2.00;;;;;9.94;76.71;102653.75;5075633;27;45250;-59
2022/01/29 09:16:44;;;;;;;;;2.00;2.00;;;;;9.87;77.76;102648.59;5073695;27;45821;-59
2022/01/29 09:19:09;;;;;;;;;1.00;1.00;;;;;9.91;76.57;102650.28;5074585;27;45591;-60
2022/01/29 09:21:35;;;;;;;;;3.50;2.50;;;;;9.93;77.22;102652.00;5074701;27;45867;-59
2022/01/29 09:24:01;;;;;;;;;2.67;2.67;;;;;9.90;76.52;102646.75;5076151;28;45590;-59
2022/01/29 09:26:26;;;;;;;;;5.25;3.00;;;;;9.99;77.13;102651.88;5076878;28;45805;-64
2022/01/29 09:28:52;;;;;;;;;3.00;3.00;;;;;9.97;77.44;102632.41;5078090;28;45499;-59
2022/01/29 09:31:18;;;;;;;;;3.00;3.00;;;;;10.02;76.97;102630.53;5078473;28;45392;-63
2022/01/29 09:33:43;;;;;;;;;2.67;2.67;;;;;10.11;76.20;102645.41;5077479;28;45372;-60
2022/01/29 09:36:09;;;;;;;;;2.00;2.00;;;;;10.17;76.81;102631.13;5076697;28;45286;-59
2022/01/29 09:38:35;;;;;;;;;1.67;1.67;;;;;10.18;75.71;102635.53;5078563;28;45306;-59
2022/01/29 09:41:01;;;;;;;;;2.00;2.00;;;;;10.17;76.20;102633.78;5078443;28;45349;-60
2022/01/29 09:43:30;;;;;;;;;4.33;2.67;;;;;10.19;75.90;102631.97;5077739;28;45374;-60
2022/01/29 09:45:57;;;;;;;;;2.00;2.00;;;;;10.16;76.39;102621.41;5078118;27;45433;-59
2022/01/29 09:48:24;;;;;;;;;2.00;2.00;;;;;10.21;75.83;102630.16;5078605;27;45472;-61
2022/01/29 09:50:52;;;;;;;;;1.50;1.50;;;;;10.22;75.76;102631.94;5078486;27;46475;-59
2022/01/29 09:53:18;;;;;;;;;5.25;2.75;;;;;10.25;76.32;102626.53;5077145;28;45320;-59
2022/01/29 09:55:44;;;;;;;;;3.50;3.50;;;;;10.23;76.02;102623.03;5078407;27;45283;-59
2022/01/29 09:58:10;;;;;;;;;2.25;2.25;;;;;10.24;76.35;102638.97;5078530;27;45514;-59
2022/01/29 10:00:37;;;;;;;;;1.00;1.00;;;;;10.27;75.98;102633.56;5078022;28;46170;-61
2022/01/29 10:03:11;;;;;;;;;3.00;2.00;;;;;10.26;75.75;102654.88;5078334;27;45266;-60
2022/01/29 10:05:38;;;;;;;;;2.33;2.33;;;;;10.25;75.94;102637.16;5076525;28;45524;-59
2022/01/29 10:08:05;;;;;;;;;2.00;2.00;;;;;10.26;76.63;102639.78;5078321;28;45521;-61
2022/01/29 10:10:38;;;;;;;;;1.33;1.33;;;;;10.29;76.42;102638.88;5077761;27;45483;-61
2022/01/29 10:13:21;;;;;;;;;2.00;2.00;;;;;10.30;75.86;102641.50;5076291;28;45365;-61
2022/01/29 10:15:47;;;;;;;;;2.00;2.00;;;;;10.34;75.73;102642.28;5078289;28;45340;-61
2022/01/29 10:18:22;;;;;;;;;4.33;4.33;;;;;10.33;76.54;102645.88;5061518;28;45540;-60
2022/01/29 10:20:49;;;;;;;;;1.00;0.00;;;;;10.37;76.06;102650.19;5060743;28;46568;-60
2022/01/29 10:23:14;;;;;;;;;2.33;2.33;;;;;10.32;76.13;102633.47;5077388;27;45473;-61
2022/01/29 10:25:43;;;;;;;;;2.00;2.00;;;;;10.47;75.96;102654.41;5077592;27;45339;-62
2022/01/29 10:28:09;;;;;;;;;3.00;3.00;;;;;10.49;75.92;102641.94;5077895;28;45164;-60
2022/01/29 10:30:37;;;;;;;;;3.00;3.00;;;;;10.50;76.28;102659.66;5077504;27;46392;-63
2022/01/29 10:33:26;;;;;;;;;1.33;1.33;;;;;10.52;75.36;102641.00;5077649;28;45592;-60
2022/01/29 10:36:01;;;;;;;;;2.33;2.00;;;;;10.56;75.88;102643.56;5077860;28;45357;-60
2022/01/29 10:38:48;;;;;;;;;2.00;2.00;;;;;10.59;76.35;102645.28;5077665;27;45287;-61
2022/01/29 10:41:18;;;;;;;;;2.67;1.33;;;;;10.66;75.53;102635.34;5076185;28;45294;-59
2022/01/29 10:44:18;;;;;;;;;3.00;1.33;;;;;10.69;75.45;102635.28;5077241;27;45403;-61
2022/01/29 10:46:54;;;;;;;;;3.00;1.33;;;;;10.73;75.10;102631.63;5077489;28;45257;-60
2022/01/29 10:49:27;;;;;;;;;3.00;2.00;;;;;10.73;74.60;102623.66;5077905;27;45371;-60
2022/01/29 10:52:00;;;;;;;;;3.33;3.00;;;;;10.74;74.73;102630.72;5076279;27;48117;-60
2022/01/29 10:54:27;;;;;;;;;3.00;2.00;;;;;10.74;75.26;102638.72;5077104;27;45393;-60
2022/01/29 10:56:56;;;;;;;;;5.33;2.33;;;;;10.79;74.86;102642.13;5093093;27;45237;-59
2022/01/29 10:59:23;;;;;;;;;3.00;2.00;;;;;10.77;75.00;102631.50;5077567;28;45449;-62
2022/01/29 11:01:53;;;;;;;;;2.00;2.00;;;;;10.76;74.94;102642.19;5075739;28;47426;-61
2022/01/29 11:04:19;;;;;;;;;3.00;3.00;;;;;10.74;74.74;102642.25;5077195;27;45402;-60
2022/01/29 11:06:47;;;;;;;;;3.00;3.00;;;;;10.77;75.40;102635.97;5075728;27;45275;-64
2022/01/29 11:09:13;;;;;;;;;2.33;2.33;;;;;10.82;75.42;102650.94;5075943;27;45603;-59
2022/01/29 11:11:40;;;;;;;;;1.67;1.67;;;;;10.86;74.83;102646.41;5077446;27;45867;-60
2022/01/29 11:14:07;;;;;;;;;7.00;2.00;;;;;10.83;74.68;102646.47;5075912;27;45394;-59
2022/01/29 11:16:34;;;;;;;;;1.00;1.00;;;;;10.82;74.67;102639.41;5093055;27;45267;-60
2022/01/29 11:19:00;;;;;;;;;2.00;2.00;;;;;10.80;75.46;102647.41;5077382;27;45294;-63
2022/01/29 11:21:26;;;;;;;;;1.00;1.00;;;;;10.80;75.38;102644.75;5065674;28;46825;-59
2022/01/29 11:23:53;;;;;;;;;2.00;2.00;;;;;10.84;75.03;102638.44;5056940;28;45406;-60
2022/01/29 11:26:19;;;;;;;;;2.00;2.00;;;;;10.75;75.01;102628.03;5055230;28;45362;-59
2022/01/29 11:28:44;;;;;;;;;2.00;2.00;;;;;10.83;74.94;102641.16;5056638;28;45456;-60
2022/01/29 11:31:16;;;;;;;;;2.00;2.00;;;;;10.85;74.98;102648.19;5054788;28;45466;-60
2022/01/29 11:33:59;;;;;;;;;5.75;3.00;;;;;10.84;75.92;102651.75;5056337;28;45456;-61
2022/01/29 11:36:49;;;;;;;;;3.67;3.00;;;;;10.88;75.13;102647.22;5056754;28;45304;-61